sensor_id;sensor_type;location;lat;lon;timestamp;pressure;altitude;pressure_sealevel;temperature;humidity
49709;BME280;35601;55.902;13.606;2022-12-15T16:09:53;99935.96;;;-7.33;52.05
49709;BME280;35601;55.902;13.606;2022-12-15T16:12:24;99941.46;;;-7.27;52.57
49709;BME280;35601;55.902;13.606;2022-12-15T16:14:43;99951.44;;;-7.74;53.20
49709;BME280;35601;55.902;13.606;2022-12-15T16:17:09;99958.62;;;-8.17;55.62
49709;BME280;35601;55.902;13.606;2022-12-15T16:19:34;99964.60;;;-8.51;56.92
49709;BME280;35601;55.902;13.606;2022-12-15T16:22:00;99962.97;;;-8.29;56.41
49709;BME280;35601;55.902;13.606;2022-12-15T16:24:25;99967.27;;;-8.05;56.13
49709;BME280;35601;55.902;13.606;2022-12-15T16:26:51;99969.57;;;-8.11;56.44
49709;BME280;35601;55.902;13.606;2022-12-15T16:29:19;99972.46;;;-8.22;56.56
49709;BME280;35601;55.902;13.606;2022-12-15T16:31:42;99976.97;;;-8.33;56.96
49709;BME280;35601;55.902;13.606;2022-12-15T16:34:08;99979.56;;;-8.18;57.36
49709;BME280;35601;55.902;13.606;2022-12-15T16:36:34;99977.05;;;-8.51;57.80
49709;BME280;35601;55.902;13.606;2022-12-15T16:38:59;99982.12;;;-8.56;57.86
49709;BME280;35601;55.902;13.606;2022-12-15T16:41:24;99989.15;;;-8.65;57.05
49709;BME280;35601;55.902;13.606;2022-12-15T16:43:50;99994.26;;;-8.69;56.51
49709;BME280;35601;55.902;13.606;2022-12-15T16:46:16;100000.80;;;-8.71;56.52
49709;BME280;35601;55.902;13.606;2022-12-15T16:48:41;100000.49;;;-8.81;56.66
49709;BME280;35601;55.902;13.606;2022-12-15T16:51:08;100001.23;;;-9.16;56.73
49709;BME280;35601;55.902;13.606;2022-12-15T16:53:35;100001.92;;;-9.05;57.12
49709;BME280;35601;55.902;13.606;2022-12-15T16:55:59;100002.50;;;-9.26;57.82
49709;BME280;35601;55.902;13.606;2022-12-15T16:58:24;100003.98;;;-9.27;58.74
49709;BME280;35601;55.902;13.606;2022-12-15T17:00:49;99998.13;;;-9.37;59.14
49709;BME280;35601;55.902;13.606;2022-12-15T17:03:16;100001.18;;;-9.65;59.24
49709;BME280;35601;55.902;13.606;2022-12-15T17:05:42;100004.79;;;-10.54;58.48
49709;BME280;35601;55.902;13.606;2022-12-15T17:08:06;100010.32;;;-11.11;57.09
49709;BME280;35601;55.902;13.606;2022-12-15T17:10:31;100012.92;;;-10.81;56.21
49709;BME280;35601;55.902;13.606;2022-12-15T17:13:02;100013.13;;;-10.90;55.86
49709;BME280;35601;55.902;13.606;2022-12-15T17:15:23;100016.57;;;-10.46;54.65
49709;BME280;35601;55.902;13.606;2022-12-15T17:17:47;100015.63;;;-10.61;53.90
49709;BME280;35601;55.902;13.606;2022-12-15T17:20:18;100019.48;;;-10.82;53.54
49709;BME280;35601;55.902;13.606;2022-12-15T17:22:38;100023.29;;;-10.73;53.58
49709;BME280;35601;55.902;13.606;2022-12-15T17:25:03;100024.60;;;-10.61;53.84
49709;BME280;35601;55.902;13.606;2022-12-15T17:27:29;100025.88;;;-10.50;53.49
49709;BME280;35601;55.902;13.606;2022-12-15T17:29:54;100029.14;;;-11.10;53.31
49709;BME280;35601;55.902;13.606;2022-12-15T17:32:19;100034.98;;;-10.82;53.29
49709;BME280;35601;55.902;13.606;2022-12-15T17:34:45;100036.18;;;-10.86;53.19
49709;BME280;35601;55.902;13.606;2022-12-15T17:37:12;100038.61;;;-10.60;53.11
49709;BME280;35601;55.902;13.606;2022-12-15T17:39:35;100037.92;;;-10.91;53.18
49709;BME280;35601;55.902;13.606;2022-12-15T17:42:01;100040.48;;;-10.82;52.59
49709;BME280;35601;55.902;13.606;2022-12-15T17:44:28;100040.47;;;-11.14;52.27
49709;BME280;35601;55.902;13.606;2022-12-15T17:46:52;100045.03;;;-10.93;52.07
49709;BME280;35601;55.902;13.606;2022-12-15T17:49:17;100048.18;;;-10.99;51.61
49709;BME280;35601;55.902;13.606;2022-12-15T17:51:43;100055.20;;;-10.80;51.65
49709;BME280;35601;55.902;13.606;2022-12-15T17:54:10;100061.14;;;-10.99;51.53
49709;BME280;35601;55.902;13.606;2022-12-15T17:56:33;100067.25;;;-11.02;50.79
49709;BME280;35601;55.902;13.606;2022-12-15T17:58:59;100075.65;;;-11.98;50.54
49709;BME280;35601;55.902;13.606;2022-12-15T18:01:25;100078.09;;;-11.64;51.06
49709;BME280;35601;55.902;13.606;2022-12-15T18:03:50;100088.40;;;-11.55;51.21
49709;BME280;35601;55.902;13.606;2022-12-15T18:06:17;100088.70;;;-11.81;51.45
49709;BME280;35601;55.902;13.606;2022-12-15T18:08:41;100095.25;;;-11.66;51.30
49709;BME280;35601;55.902;13.606;2022-12-15T18:11:08;100102.89;;;-11.77;51.85
49709;BME280;35601;55.902;13.606;2022-12-15T18:13:32;100108.90;;;-11.59;52.38
49709;BME280;35601;55.902;13.606;2022-12-15T18:15:58;100113.16;;;-11.66;52.84
49709;BME280;35601;55.902;13.606;2022-12-15T18:18:23;100122.81;;;-11.89;52.46
49709;BME280;35601;55.902;13.606;2022-12-15T18:20:48;100125.57;;;-11.78;51.91
49709;BME280;35601;55.902;13.606;2022-12-15T18:23:14;100132.47;;;-11.52;51.63
49709;BME280;35601;55.902;13.606;2022-12-15T18:25:38;100135.47;;;-11.63;51.37
49709;BME280;35601;55.902;13.606;2022-12-15T18:28:07;100137.78;;;-11.49;51.85
49709;BME280;35601;55.902;13.606;2022-12-15T18:30:29;100139.46;;;-11.67;52.05
49709;BME280;35601;55.902;13.606;2022-12-15T18:32:57;100140.27;;;-11.37;52.33
49709;BME280;35601;55.902;13.606;2022-12-15T18:35:23;100139.45;;;-11.59;52.65
49709;BME280;35601;55.902;13.606;2022-12-15T18:37:46;100143.41;;;-11.77;53.87
49709;BME280;35601;55.902;13.606;2022-12-15T18:40:13;100139.00;;;-11.77;57.61
49709;BME280;35601;55.902;13.606;2022-12-15T18:42:38;100138.40;;;-11.66;61.17
49709;BME280;35601;55.902;13.606;2022-12-15T18:45:03;100140.65;;;-11.48;62.16
49709;BME280;35601;55.902;13.606;2022-12-15T18:47:28;100145.13;;;-11.55;63.15
49709;BME280;35601;55.902;13.606;2022-12-15T18:49:53;100148.35;;;-11.35;63.05
49709;BME280;35601;55.902;13.606;2022-12-15T18:52:20;100147.15;;;-11.07;62.59
49709;BME280;35601;55.902;13.606;2022-12-15T18:54:45;100150.33;;;-10.91;63.10
49709;BME280;35601;55.902;13.606;2022-12-15T18:59:35;100165.12;;;-10.87;65.03
49709;BME280;35601;55.902;13.606;2022-12-15T19:02:00;100170.73;;;-11.08;65.54
49709;BME280;35601;55.902;13.606;2022-12-15T19:04:27;100174.86;;;-11.11;65.31
49709;BME280;35601;55.902;13.606;2022-12-15T19:06:51;100180.39;;;-10.87;64.62
49709;BME280;35601;55.902;13.606;2022-12-15T19:09:18;100185.93;;;-9.32;64.54
49709;BME280;35601;55.902;13.606;2022-12-15T19:11:43;100185.04;;;-8.95;65.16
49709;BME280;35601;55.902;13.606;2022-12-15T19:14:12;100186.26;;;-9.28;65.53
49709;BME280;35601;55.902;13.606;2022-12-15T19:16:33;100185.33;;;-8.97;66.11
49709;BME280;35601;55.902;13.606;2022-12-15T19:18:59;100185.88;;;-9.17;67.12
49709;BME280;35601;55.902;13.606;2022-12-15T19:21:29;100187.23;;;-9.42;68.24
49709;BME280;35601;55.902;13.606;2022-12-15T19:23:50;100189.13;;;-9.04;68.43
49709;BME280;35601;55.902;13.606;2022-12-15T19:26:15;100186.78;;;-9.25;68.79
49709;BME280;35601;55.902;13.606;2022-12-15T19:28:41;100188.92;;;-9.56;69.25
49709;BME280;35601;55.902;13.606;2022-12-15T19:31:06;100190.10;;;-9.63;69.77
49709;BME280;35601;55.902;13.606;2022-12-15T19:33:32;100196.78;;;-9.49;70.01
49709;BME280;35601;55.902;13.606;2022-12-15T19:35:58;100201.67;;;-9.37;69.63
49709;BME280;35601;55.902;13.606;2022-12-15T19:38:25;100203.76;;;-9.44;68.96
49709;BME280;35601;55.902;13.606;2022-12-15T19:40:49;100204.59;;;-9.31;68.44
49709;BME280;35601;55.902;13.606;2022-12-15T19:43:15;100208.59;;;-9.27;68.70
49709;BME280;35601;55.902;13.606;2022-12-15T19:45:39;100210.50;;;-9.54;68.53
49709;BME280;35601;55.902;13.606;2022-12-15T19:48:05;100209.47;;;-9.74;68.92
49709;BME280;35601;55.902;13.606;2022-12-15T19:50:33;100212.33;;;-9.22;68.46
49709;BME280;35601;55.902;13.606;2022-12-15T19:52:58;100214.21;;;-9.33;67.95
49709;BME280;35601;55.902;13.606;2022-12-15T19:55:25;100217.61;;;-9.26;67.87
49709;BME280;35601;55.902;13.606;2022-12-15T19:57:47;100217.20;;;-9.44;68.16
49709;BME280;35601;55.902;13.606;2022-12-15T20:00:15;100218.55;;;-9.54;68.38
49709;BME280;35601;55.902;13.606;2022-12-15T20:02:38;100219.98;;;-9.26;67.66
49709;BME280;35601;55.902;13.606;2022-12-15T20:05:04;100221.70;;;-9.40;66.66
49709;BME280;35601;55.902;13.606;2022-12-15T20:07:29;100222.77;;;-9.43;67.00
49709;BME280;35601;55.902;13.606;2022-12-15T20:09:54;100225.53;;;-9.56;66.41
49709;BME280;35601;55.902;13.606;2022-12-15T20:12:20;100223.47;;;-9.03;66.03
49709;BME280;35601;55.902;13.606;2022-12-15T20:14:45;100229.26;;;-9.23;65.79
49709;BME280;35601;55.902;13.606;2022-12-15T20:17:11;100236.28;;;-9.31;66.09
49709;BME280;35601;55.902;13.606;2022-12-15T20:19:36;100242.94;;;-9.34;66.25
49709;BME280;35601;55.902;13.606;2022-12-15T20:22:02;100246.13;;;-9.45;65.53
49709;BME280;35601;55.902;13.606;2022-12-15T20:24:28;100256.22;;;-9.37;64.87
49709;BME280;35601;55.902;13.606;2022-12-15T20:26:52;100261.44;;;-9.62;64.88
49709;BME280;35601;55.902;13.606;2022-12-15T20:29:22;100266.68;;;-9.57;65.24
49709;BME280;35601;55.902;13.606;2022-12-15T20:31:43;100269.55;;;-9.35;64.99
49709;BME280;35601;55.902;13.606;2022-12-15T20:34:08;100270.53;;;-9.22;64.71
49709;BME280;35601;55.902;13.606;2022-12-15T20:36:34;100273.40;;;-9.19;64.94
49709;BME280;35601;55.902;13.606;2022-12-15T20:38:59;100276.10;;;-9.43;66.07
49709;BME280;35601;55.902;13.606;2022-12-15T20:41:26;100273.22;;;-9.71;66.41
49709;BME280;35601;55.902;13.606;2022-12-15T20:43:51;100273.24;;;-9.51;66.58
49709;BME280;35601;55.902;13.606;2022-12-15T20:46:18;100271.98;;;-9.43;66.77
49709;BME280;35601;55.902;13.606;2022-12-15T20:48:41;100270.65;;;-9.80;66.82
49709;BME280;35601;55.902;13.606;2022-12-15T20:51:19;100273.96;;;-9.39;67.44
49709;BME280;35601;55.902;13.606;2022-12-15T20:53:31;100281.18;;;-9.81;67.71
49709;BME280;35601;55.902;13.606;2022-12-15T20:55:57;100284.50;;;-9.76;68.43
49709;BME280;35601;55.902;13.606;2022-12-15T20:58:22;100285.55;;;-10.17;68.79
49709;BME280;35601;55.902;13.606;2022-12-15T21:00:48;100281.32;;;-9.93;68.62
49709;BME280;35601;55.902;13.606;2022-12-15T21:03:17;100279.99;;;-9.88;68.88
49709;BME280;35601;55.902;13.606;2022-12-15T21:05:39;100285.08;;;-9.64;68.74
49709;BME280;35601;55.902;13.606;2022-12-15T21:08:10;100289.62;;;-9.83;68.65
49709;BME280;35601;55.902;13.606;2022-12-15T21:10:29;100290.13;;;-9.89;68.37
49709;BME280;35601;55.902;13.606;2022-12-15T21:12:55;100292.24;;;-9.99;68.13
49709;BME280;35601;55.902;13.606;2022-12-15T21:15:21;100294.49;;;-10.00;68.02
49709;BME280;35601;55.902;13.606;2022-12-15T21:17:46;100294.88;;;-9.58;67.87
49709;BME280;35601;55.902;13.606;2022-12-15T21:20:12;100302.55;;;-9.78;68.06
49709;BME280;35601;55.902;13.606;2022-12-15T21:22:37;100308.61;;;-10.17;67.23
49709;BME280;35601;55.902;13.606;2022-12-15T21:25:03;100307.47;;;-9.84;67.34
49709;BME280;35601;55.902;13.606;2022-12-15T21:27:27;100307.43;;;-9.58;67.00
49709;BME280;35601;55.902;13.606;2022-12-15T21:29:52;100317.42;;;-10.11;67.25
49709;BME280;35601;55.902;13.606;2022-12-15T21:32:18;100318.72;;;-9.61;67.60
49709;BME280;35601;55.902;13.606;2022-12-15T21:34:43;100321.69;;;-9.68;67.32
49709;BME280;35601;55.902;13.606;2022-12-15T21:37:15;100327.75;;;-9.76;67.33
49709;BME280;35601;55.902;13.606;2022-12-15T21:39:35;100334.25;;;-10.07;67.24
49709;BME280;35601;55.902;13.606;2022-12-15T21:42:02;100340.62;;;-9.70;67.08
49709;BME280;35601;55.902;13.606;2022-12-15T21:44:24;100346.33;;;-9.96;67.38
49709;BME280;35601;55.902;13.606;2022-12-15T21:46:49;100349.34;;;-9.96;67.81
49709;BME280;35601;55.902;13.606;2022-12-15T21:49:15;100347.51;;;-10.12;68.23
49709;BME280;35601;55.902;13.606;2022-12-15T21:51:43;100346.94;;;-10.00;68.16
49709;BME280;35601;55.902;13.606;2022-12-15T21:54:14;100348.36;;;-10.14;68.58
49709;BME280;35601;55.902;13.606;2022-12-15T21:56:31;100349.93;;;-9.88;68.61
49709;BME280;35601;55.902;13.606;2022-12-15T21:58:57;100347.40;;;-9.84;68.44
49709;BME280;35601;55.902;13.606;2022-12-15T22:01:26;100346.20;;;-9.88;67.93
49709;BME280;35601;55.902;13.606;2022-12-15T22:03:50;100343.91;;;-10.03;67.35
49709;BME280;35601;55.902;13.606;2022-12-15T22:06:17;100345.22;;;-9.65;66.64
49709;BME280;35601;55.902;13.606;2022-12-15T22:08:39;100350.53;;;-9.57;65.93
49709;BME280;35601;55.902;13.606;2022-12-15T22:11:08;100351.24;;;-9.48;65.83
49709;BME280;35601;55.902;13.606;2022-12-15T22:13:29;100359.21;;;-9.63;65.51
49709;BME280;35601;55.902;13.606;2022-12-15T22:15:55;100363.51;;;-9.51;66.07
49709;BME280;35601;55.902;13.606;2022-12-15T22:18:20;100361.80;;;-9.66;66.23
49709;BME280;35601;55.902;13.606;2022-12-15T22:20:47;100354.75;;;-10.05;66.24
49709;BME280;35601;55.902;13.606;2022-12-15T22:23:12;100353.07;;;-9.66;65.53
49709;BME280;35601;55.902;13.606;2022-12-15T22:25:37;100358.48;;;-9.80;65.10
49709;BME280;35601;55.902;13.606;2022-12-15T22:28:03;100359.46;;;-9.76;64.33
49709;BME280;35601;55.902;13.606;2022-12-15T22:30:29;100363.17;;;-10.00;63.58
49709;BME280;35601;55.902;13.606;2022-12-15T22:32:54;100366.41;;;-9.95;63.66
49709;BME280;35601;55.902;13.606;2022-12-15T22:35:22;100367.54;;;-9.91;63.05
49709;BME280;35601;55.902;13.606;2022-12-15T22:37:45;100372.23;;;-9.97;62.27
49709;BME280;35601;55.902;13.606;2022-12-15T22:40:12;100372.01;;;-9.95;62.22
49709;BME280;35601;55.902;13.606;2022-12-15T22:42:37;100376.16;;;-9.98;61.48
49709;BME280;35601;55.902;13.606;2022-12-15T22:45:01;100378.31;;;-10.06;60.81
49709;BME280;35601;55.902;13.606;2022-12-15T22:47:27;100383.37;;;-9.92;60.14
49709;BME280;35601;55.902;13.606;2022-12-15T22:49:52;100388.27;;;-10.42;60.34
49709;BME280;35601;55.902;13.606;2022-12-15T22:52:19;100394.93;;;-10.01;60.83
49709;BME280;35601;55.902;13.606;2022-12-15T22:54:44;100399.00;;;-10.71;60.67
49709;BME280;35601;55.902;13.606;2022-12-15T22:57:16;100396.86;;;-10.53;61.91
49709;BME280;35601;55.902;13.606;2022-12-15T22:59:37;100399.65;;;-10.66;61.72
49709;BME280;35601;55.902;13.606;2022-12-15T23:02:00;100400.34;;;-10.68;62.03
49709;BME280;35601;55.902;13.606;2022-12-15T23:04:26;100400.17;;;-10.67;61.97
49709;BME280;35601;55.902;13.606;2022-12-15T23:06:51;100401.69;;;-10.80;62.02
49709;BME280;35601;55.902;13.606;2022-12-15T23:09:17;100406.38;;;-10.63;62.24
49709;BME280;35601;55.902;13.606;2022-12-15T23:11:42;100409.43;;;-10.85;61.75
49709;BME280;35601;55.902;13.606;2022-12-15T23:14:10;100413.49;;;-10.68;60.88
49709;BME280;35601;55.902;13.606;2022-12-15T23:16:33;100410.91;;;-10.68;60.47
49709;BME280;35601;55.902;13.606;2022-12-15T23:19:00;100415.42;;;-10.73;59.87
49709;BME280;35601;55.902;13.606;2022-12-15T23:21:25;100422.72;;;-10.83;60.22
49709;BME280;35601;55.902;13.606;2022-12-15T23:23:50;100421.30;;;-10.85;60.29
49709;BME280;35601;55.902;13.606;2022-12-15T23:26:17;100423.30;;;-10.92;59.96
49709;BME280;35601;55.902;13.606;2022-12-15T23:28:41;100422.76;;;-10.90;59.92
49709;BME280;35601;55.902;13.606;2022-12-15T23:31:07;100424.08;;;-11.16;59.77
49709;BME280;35601;55.902;13.606;2022-12-15T23:33:32;100429.39;;;-10.87;59.53
49709;BME280;35601;55.902;13.606;2022-12-15T23:35:59;100434.09;;;-10.95;59.50
49709;BME280;35601;55.902;13.606;2022-12-15T23:38:24;100441.70;;;-10.94;59.36
49709;BME280;35601;55.902;13.606;2022-12-15T23:40:50;100447.07;;;-10.95;59.31
49709;BME280;35601;55.902;13.606;2022-12-15T23:43:15;100440.69;;;-10.90;59.24
49709;BME280;35601;55.902;13.606;2022-12-15T23:45:40;100439.48;;;-10.86;58.74
49709;BME280;35601;55.902;13.606;2022-12-15T23:48:05;100443.37;;;-10.91;58.43
49709;BME280;35601;55.902;13.606;2022-12-15T23:50:30;100442.53;;;-10.93;58.57
49709;BME280;35601;55.902;13.606;2022-12-15T23:52:55;100441.18;;;-11.04;58.71
49709;BME280;35601;55.902;13.606;2022-12-15T23:55:21;100437.77;;;-11.14;59.19
49709;BME280;35601;55.902;13.606;2022-12-15T23:57:46;100436.29;;;-11.32;59.63
